createdAt,value
2019-05-09T00:01:30.529Z,14.17
2019-05-09T00:05:34.832Z,14.18
2019-05-09T00:09:39.119Z,14.18
2019-05-09T00:13:43.714Z,14.16
2019-05-09T00:17:47.974Z,14.15
2019-05-09T00:21:54.057Z,14.13
2019-05-09T00:25:58.311Z,14.15
2019-05-09T00:30:03.826Z,14.17
2019-05-09T00:34:10.789Z,14.16
2019-05-09T00:38:15.376Z,14.16
2019-05-09T00:42:20.101Z,14.16
2019-05-09T00:46:30.664Z,14.16
2019-05-09T00:50:34.861Z,14.16
2019-05-09T00:54:39.136Z,14.15
2019-05-09T00:58:44.044Z,14.14
2019-05-09T01:02:48.580Z,14.13
2019-05-09T01:06:54.002Z,14.12
2019-05-09T01:11:11.119Z,14.13
2019-05-09T01:15:05.230Z,14.07
2019-05-09T01:19:09.463Z,14.05
2019-05-09T01:23:14.358Z,14.05
2019-05-09T01:27:18.711Z,14.05
2019-05-09T01:31:24.007Z,14.03
2019-05-09T01:35:28.729Z,13.98
2019-05-09T01:39:33.771Z,13.95
2019-05-09T01:43:38.400Z,13.96
2019-05-09T01:47:43.103Z,13.93
2019-05-09T01:51:47.384Z,13.92
2019-05-09T01:55:58.415Z,13.95
2019-05-09T02:00:04.149Z,13.92
2019-05-09T02:04:08.601Z,13.91
2019-05-09T02:08:14.230Z,13.91
2019-05-09T02:12:18.700Z,13.88
2019-05-09T02:16:43.218Z,13.91
2019-05-09T02:20:47.689Z,13.96
2019-05-09T02:24:53.462Z,13.93
2019-05-09T02:28:57.824Z,13.96
2019-05-09T02:33:04.822Z,13.92
2019-05-09T02:37:09.250Z,13.86
2019-05-09T02:41:13.616Z,13.80
2019-05-09T02:45:19.234Z,13.75
2019-05-09T02:49:23.812Z,13.72
2019-05-09T02:53:28.902Z,13.72
2019-05-09T02:57:33.848Z,13.75
2019-05-09T03:01:45.483Z,13.75
2019-05-09T03:05:52.963Z,13.70
2019-05-09T03:09:58.278Z,13.68
2019-05-09T03:14:02.692Z,13.65
2019-05-09T03:18:08.923Z,13.62
2019-05-09T03:22:18.797Z,13.60
2019-05-09T03:26:29.329Z,13.53
2019-05-09T03:30:39.399Z,13.49
2019-05-09T03:34:42.246Z,13.51
2019-05-09T03:38:47.591Z,13.52
2019-05-09T03:42:51.903Z,13.51
2019-05-09T03:47:17.916Z,13.55
2019-05-09T03:51:22.121Z,13.53
2019-05-09T03:55:33.718Z,13.52
2019-05-09T03:59:38.218Z,13.50
2019-05-09T04:03:42.517Z,13.46
2019-05-09T04:07:47.878Z,13.43
2019-05-09T04:11:52.340Z,13.43
2019-05-09T04:15:58.241Z,13.45
2019-05-09T04:20:02.729Z,13.41
2019-05-09T04:24:08.501Z,13.44
2019-05-09T04:28:12.936Z,13.47
2019-05-09T04:32:18.308Z,13.44
2019-05-09T04:36:38.674Z,13.41
2019-05-09T04:40:45.044Z,13.39
2019-05-09T04:45:03.496Z,13.35
2019-05-09T04:49:08.079Z,13.33
2019-05-09T04:53:11.934Z,13.37
2019-05-09T04:57:17.885Z,13.40
2019-05-09T05:01:32.128Z,13.36
2019-05-09T05:05:37.136Z,13.29
2019-05-09T05:09:42.835Z,13.28
2019-05-09T05:13:48.143Z,13.30
2019-05-09T05:17:52.562Z,13.30
2019-05-09T05:22:01.112Z,13.36
2019-05-09T05:26:05.399Z,13.40
2019-05-09T05:30:10.220Z,13.48
2019-05-09T05:34:27.410Z,13.47
2019-05-09T05:38:31.756Z,13.46
2019-05-09T05:42:38.559Z,13.43
2019-05-09T05:47:01.219Z,13.43
2019-05-09T05:51:07.999Z,13.42
2019-05-09T05:55:12.153Z,13.41
2019-05-09T05:59:17.873Z,13.37
2019-05-09T06:03:22.210Z,13.35
2019-05-09T06:07:28.501Z,13.32
2019-05-09T06:11:32.843Z,13.31
2019-05-09T06:15:38.013Z,13.34
2019-05-09T06:19:42.535Z,13.36
2019-05-09T06:23:48.247Z,13.32
2019-05-09T06:27:52.568Z,13.30
2019-05-09T06:31:58.453Z,13.27
2019-05-09T06:36:02.995Z,13.18
2019-05-09T06:40:08.078Z,13.13
2019-05-09T06:44:31.536Z,13.09
2019-05-09T06:48:37.812Z,13.07
2019-05-09T06:52:42.245Z,13.09
2019-05-09T06:56:47.536Z,13.05
2019-05-09T07:00:58.409Z,13.09
2019-05-09T07:05:08.371Z,13.06
2019-05-09T07:09:38.448Z,13.02
2019-05-09T07:13:42.807Z,13.00
2019-05-09T07:17:48.221Z,12.94
2019-05-09T07:22:23.816Z,12.92
2019-05-09T07:26:31.448Z,12.88
2019-05-09T07:30:43.157Z,12.84
2019-05-09T07:34:51.906Z,12.79
2019-05-09T07:38:58.286Z,12.79
2019-05-09T07:43:02.333Z,12.81
2019-05-09T07:47:07.963Z,12.78
2019-05-09T07:51:12.612Z,12.80
2019-05-09T07:55:18.058Z,12.79
2019-05-09T07:59:22.541Z,12.80
2019-05-09T08:03:27.558Z,12.79
2019-05-09T08:07:33.167Z,12.79
2019-05-09T08:11:37.834Z,12.78
2019-05-09T08:15:42.251Z,12.73
2019-05-09T08:19:48.479Z,12.73
2019-05-09T08:23:52.842Z,12.72
2019-05-09T08:27:58.848Z,12.73
2019-05-09T08:32:03.074Z,12.75
2019-05-09T08:36:09.165Z,12.74
2019-05-09T08:40:13.732Z,12.77
2019-05-09T08:44:18.662Z,12.76
2019-05-09T08:48:23.429Z,12.78
2019-05-09T08:52:28.776Z,12.78
2019-05-09T08:56:33.224Z,12.80
2019-05-09T09:00:39.140Z,12.82
2019-05-09T09:04:44.077Z,12.86
2019-05-09T09:08:48.521Z,12.90
2019-05-09T09:12:52.791Z,12.91
2019-05-09T09:16:57.666Z,12.92
2019-05-09T09:21:02.901Z,12.95
2019-05-09T09:25:07.919Z,12.97
2019-05-09T09:29:12.255Z,12.96
2019-05-09T09:33:17.592Z,12.97
2019-05-09T09:37:22.045Z,12.98
2019-05-09T09:41:28.535Z,13.01
2019-05-09T09:45:32.333Z,13.03
2019-05-09T09:49:38.462Z,13.07
2019-05-09T09:53:42.887Z,13.10
2019-05-09T09:57:48.446Z,13.11
2019-05-09T10:01:54.155Z,13.15
2019-05-09T10:05:58.480Z,13.18
2019-05-09T10:10:02.739Z,13.23
2019-05-09T10:14:08.755Z,13.29
2019-05-09T10:18:35.209Z,13.36
2019-05-09T10:22:45.972Z,13.40
2019-05-09T10:27:13.714Z,13.42
2019-05-09T10:31:18.022Z,13.45
2019-05-09T10:35:27.831Z,13.46
2019-05-09T10:39:31.585Z,13.50
2019-05-09T10:44:00.568Z,13.53
2019-05-09T10:48:04.846Z,13.57
2019-05-09T10:52:09.072Z,13.65
2019-05-09T10:56:13.350Z,13.70
2019-05-09T11:00:18.422Z,13.77
2019-05-09T11:04:22.705Z,13.80
2019-05-09T11:08:28.651Z,13.83
2019-05-09T11:12:33.075Z,13.87
2019-05-09T11:16:44.839Z,13.92
2019-05-09T11:20:43.287Z,13.98
2019-05-09T11:24:50.987Z,14.01
2019-05-09T11:28:53.628Z,14.05
2019-05-09T11:32:59.785Z,14.11
2019-05-09T11:37:03.930Z,14.21
2019-05-09T11:41:08.382Z,14.31
2019-05-09T11:45:12.906Z,14.39
2019-05-09T11:49:18.012Z,14.47
2019-05-09T11:53:22.412Z,14.56
2019-05-09T11:57:28.630Z,14.64
2019-05-09T12:01:32.676Z,14.73
2019-05-09T12:05:37.891Z,14.78
2019-05-09T12:09:42.308Z,14.85
2019-05-09T12:13:48.666Z,14.91
2019-05-09T12:17:58.174Z,14.95
2019-05-09T12:21:58.564Z,15.00
2019-05-09T12:26:02.953Z,15.07
2019-05-09T12:30:08.249Z,15.10
2019-05-09T12:34:12.535Z,15.18
2019-05-09T12:38:18.079Z,15.21
2019-05-09T12:42:22.767Z,15.28
2019-05-09T12:46:28.426Z,15.33
2019-05-09T12:50:32.905Z,15.40
2019-05-09T12:54:38.669Z,15.47
2019-05-09T12:58:43.034Z,15.54
2019-05-09T13:02:47.329Z,15.58
2019-05-09T13:06:51.616Z,15.61
2019-05-09T13:10:58.140Z,15.65
2019-05-09T13:15:02.519Z,15.68
2019-05-09T13:19:08.377Z,15.81
2019-05-09T13:23:12.580Z,15.93
2019-05-09T13:27:18.968Z,16.08
2019-05-09T13:31:23.580Z,16.16
2019-05-09T13:35:27.918Z,16.19
2019-05-09T13:39:32.275Z,16.24
2019-05-09T13:43:45.800Z,16.24
2019-05-09T13:47:42.625Z,16.25
2019-05-09T13:51:57.578Z,16.18
2019-05-09T13:55:53.206Z,16.12
2019-05-09T13:59:59.612Z,16.18
2019-05-09T14:04:03.983Z,16.31
2019-05-09T14:08:11.625Z,16.45
2019-05-09T14:12:14.365Z,16.50
2019-05-09T14:16:22.000Z,16.53
2019-05-09T14:20:24.655Z,16.51
2019-05-09T14:24:29.030Z,16.56
2019-05-09T14:28:34.124Z,16.61
2019-05-09T14:32:40.077Z,16.60
2019-05-09T14:36:46.030Z,16.60
2019-05-09T14:40:50.642Z,16.64
2019-05-09T14:44:55.101Z,16.64
2019-05-09T14:48:59.425Z,16.67
2019-05-09T14:53:03.659Z,16.72
2019-05-09T14:57:09.717Z,16.80
2019-05-09T15:01:13.976Z,16.94
2019-05-09T15:05:18.999Z,17.02
2019-05-09T15:09:23.340Z,17.09
2019-05-09T15:13:28.600Z,17.08
2019-05-09T15:17:33.036Z,17.09
2019-05-09T15:21:38.203Z,17.14
2019-05-09T15:25:42.735Z,17.20
2019-05-09T15:29:48.677Z,17.30
2019-05-09T15:33:53.000Z,17.39
2019-05-09T15:37:59.026Z,17.43
2019-05-09T15:42:03.303Z,17.35
2019-05-09T15:46:27.807Z,17.34
2019-05-09T15:50:32.692Z,17.35
2019-05-09T15:54:38.660Z,17.21
2019-05-09T15:58:43.039Z,17.14
2019-05-09T16:02:48.492Z,17.11
2019-05-09T16:06:53.155Z,17.11
2019-05-09T16:10:58.081Z,17.09
2019-05-09T16:15:02.795Z,17.07
2019-05-09T16:19:08.940Z,17.06
2019-05-09T16:23:13.201Z,17.06
2019-05-09T16:27:17.468Z,17.02
2019-05-09T16:31:21.876Z,17.01
2019-05-09T16:35:28.611Z,16.95
2019-05-09T16:39:32.547Z,16.94
2019-05-09T16:43:39.166Z,16.92
2019-05-09T16:47:42.864Z,16.91
2019-05-09T16:51:48.601Z,16.88
2019-05-09T16:55:52.963Z,16.83
2019-05-09T16:59:57.245Z,16.78
2019-05-09T17:04:01.517Z,16.69
2019-05-09T17:08:08.175Z,16.62
2019-05-09T17:12:12.094Z,16.59
2019-05-09T17:16:17.802Z,16.55
2019-05-09T17:20:27.784Z,16.49
2019-05-09T17:24:31.975Z,16.47
2019-05-09T17:28:37.650Z,16.44
2019-05-09T17:32:42.294Z,16.43
2019-05-09T17:36:46.888Z,16.40
2019-05-09T17:40:51.154Z,16.35
2019-05-09T17:44:57.790Z,16.33
2019-05-09T17:49:01.403Z,16.27
2019-05-09T17:53:05.667Z,16.23
2019-05-09T17:57:10.331Z,16.18
2019-05-09T18:01:14.620Z,16.12
2019-05-09T18:05:18.947Z,16.07
2019-05-09T18:09:23.702Z,16.00
2019-05-09T18:13:31.812Z,15.95
2019-05-09T18:17:38.274Z,15.88
2019-05-09T18:21:50.563Z,15.81
2019-05-09T18:25:49.420Z,15.74
2019-05-09T18:29:54.000Z,15.66
2019-05-09T18:34:01.653Z,15.62
2019-05-09T18:38:07.942Z,15.61
2019-05-09T18:42:12.507Z,15.57
2019-05-09T18:46:17.943Z,15.53
2019-05-09T18:50:23.044Z,15.50
2019-05-09T18:54:27.571Z,15.48
2019-05-09T18:58:31.902Z,15.44
2019-05-09T19:02:37.089Z,15.42
2019-05-09T19:06:41.377Z,15.36
2019-05-09T19:10:45.673Z,15.33
2019-05-09T19:14:51.297Z,15.29
2019-05-09T19:19:07.787Z,15.18
2019-05-09T19:23:12.240Z,15.14
2019-05-09T19:27:16.694Z,15.08
2019-05-09T19:31:20.943Z,14.99
2019-05-09T19:35:25.329Z,14.93
2019-05-09T19:39:29.660Z,14.85
2019-05-09T19:43:34.092Z,14.80
2019-05-09T19:47:39.473Z,14.75
2019-05-09T19:51:43.895Z,14.69
2019-05-09T19:55:48.194Z,14.61
2019-05-09T19:59:52.484Z,14.59
2019-05-09T20:03:56.695Z,14.52
2019-05-09T20:08:01.054Z,14.50
2019-05-09T20:12:39.711Z,14.44
2019-05-09T20:16:47.303Z,14.37
2019-05-09T20:20:52.200Z,14.27
2019-05-09T20:24:56.623Z,14.20
2019-05-09T20:29:01.127Z,14.15
2019-05-09T20:33:06.460Z,14.12
2019-05-09T20:37:10.858Z,14.11
2019-05-09T20:41:15.279Z,14.12
2019-05-09T20:45:19.748Z,14.12
2019-05-09T20:49:24.180Z,14.11
2019-05-09T20:53:28.636Z,14.07
2019-05-09T20:57:33.106Z,14.05
2019-05-09T21:01:37.659Z,14.01
2019-05-09T21:05:42.089Z,13.93
2019-05-09T21:09:46.541Z,13.86
2019-05-09T21:13:51.024Z,13.83
2019-05-09T21:17:55.515Z,13.78
2019-05-09T21:21:59.919Z,13.72
2019-05-09T21:26:04.424Z,13.68
2019-05-09T21:30:09.500Z,13.66
2019-05-09T21:34:13.986Z,13.62
2019-05-09T21:38:18.270Z,13.63
2019-05-09T21:42:22.545Z,13.60
2019-05-09T21:46:26.807Z,13.63
2019-05-09T21:50:31.103Z,13.63
2019-05-09T21:54:35.322Z,13.63
2019-05-09T21:58:39.627Z,13.66
2019-05-09T22:02:44.126Z,13.66
2019-05-09T22:06:48.610Z,13.70
2019-05-09T22:10:53.071Z,13.74
2019-05-09T22:14:57.348Z,13.70
2019-05-09T22:19:01.629Z,13.69
2019-05-09T22:23:06.562Z,13.69
2019-05-09T22:27:11.072Z,13.69
2019-05-09T22:31:15.338Z,13.70
2019-05-09T22:35:19.587Z,13.70
2019-05-09T22:39:24.055Z,13.70
2019-05-09T22:43:28.312Z,13.72
2019-05-09T22:47:32.562Z,13.68
2019-05-09T22:51:36.834Z,13.68
2019-05-09T22:55:41.203Z,13.66
2019-05-09T22:59:45.663Z,13.67
2019-05-09T23:03:50.025Z,13.70
2019-05-09T23:07:54.275Z,13.75
2019-05-09T23:11:58.531Z,13.81
2019-05-09T23:16:02.944Z,13.86
2019-05-09T23:20:09.421Z,13.87
2019-05-09T23:24:28.053Z,13.89
2019-05-09T23:28:22.208Z,13.92
2019-05-09T23:32:46.057Z,13.91
2019-05-09T23:36:50.324Z,13.93
2019-05-09T23:40:54.567Z,13.93
2019-05-09T23:44:58.769Z,13.96
2019-05-09T23:49:03.038Z,13.96
2019-05-09T23:53:07.478Z,13.96
2019-05-09T23:57:29.966Z,13.98
